Time;durP1;ratioP1;P1;durP2;ratioP2;P2;SDS_P1;SDS_P2;PMS_P1;PMS_P2;Temp;Humidity;BMP_temperature;BMP_pressure;BME280_temperature;BME280_humidity;BME280_pressure;Samples;Min_cycle;Max_cycle;Signal;HPM_P1;HPM_P2
2022/07/13 00:00:53;;;;;;;;;;;;;;;15.46;51.43;99863.28;4993127;28;913;-69
2022/07/13 00:03:20;;;;;;;;;;;;;;;15.47;51.44;99853.72;4995309;28;818;-69
2022/07/13 00:05:46;;;;;;;;;;;;;;;15.48;51.59;99853.25;4995244;28;843;-68
2022/07/13 00:08:13;;;;;;;;;;;;;;;15.50;51.50;99850.03;4995037;28;1953;-68
2022/07/13 00:10:40;;;;;;;;;;;;;;;15.45;51.51;99845.78;4995150;28;815;-69
2022/07/13 00:13:06;;;;;;;;;;;;;;;15.39;51.67;99846.75;4995015;28;847;-69
2022/07/13 00:15:33;;;;;;;;;;;;;;;15.41;51.67;99835.94;4995062;28;870;-67
2022/07/13 00:18:00;;;;;;;;;;;;;;;15.50;51.40;99841.69;4994839;28;922;-68
2022/07/13 00:20:27;;;;;;;;;;;;;;;15.42;51.81;99837.50;4994989;28;831;-70
2022/07/13 00:22:54;;;;;;;;;;;;;;;16.21;49.50;99832.72;4995042;28;862;-69
2022/07/13 00:25:22;;;;;;;;;;;;;;;17.38;46.18;99830.44;4994845;28;905;-69
2022/07/13 00:27:49;;;;;;;;;;;;;;;18.15;43.85;99838.66;4994718;28;1956;-68
2022/07/13 00:30:16;;;;;;;;;;;;;;;18.62;42.77;99846.16;4995068;28;1043;-68
2022/07/13 00:32:42;;;;;;;;;;;;;;;18.74;42.42;99841.72;4994676;28;866;-69
2022/07/13 00:35:09;;;;;;;;;;;;;;;18.90;41.86;99847.13;5009655;28;1295;-68
2022/07/13 00:37:35;;;;;;;;;;;;;;;18.98;41.89;99840.00;4994671;28;901;-67
2022/07/13 00:40:02;;;;;;;;;;;;;;;18.41;43.41;99844.16;4994701;28;919;-67
2022/07/13 00:42:29;;;;;;;;;;;;;;;17.55;45.25;99831.88;4994440;28;1198;-67
2022/07/13 00:44:55;;;;;;;;;;;;;;;16.97;46.38;99842.53;4994499;28;890;-68
2022/07/13 00:47:23;;;;;;;;;;;;;;;16.54;47.40;99842.53;4994309;28;1910;-68
2022/07/13 00:49:49;;;;;;;;;;;;;;;16.23;48.44;99841.44;4994416;28;820;-68
2022/07/13 00:52:15;;;;;;;;;;;;;;;16.00;49.25;99848.00;4994375;28;803;-68
2022/07/13 00:54:43;;;;;;;;;;;;;;;15.92;49.38;99850.22;4994360;28;827;-68
2022/07/13 00:57:11;;;;;;;;;;;;;;;15.89;49.42;99842.72;4994606;28;827;-67
2022/07/13 00:59:37;;;;;;;;;;;;;;;15.82;49.89;99843.69;4994183;28;973;-68
2022/07/13 01:02:04;;;;;;;;;;;;;;;15.74;50.14;99841.53;4994190;28;835;-69
2022/07/13 01:04:30;;;;;;;;;;;;;;;15.67;50.22;99854.38;4994167;28;921;-68
2022/07/13 01:06:57;;;;;;;;;;;;;;;15.50;50.75;99855.63;4994006;28;1890;-68
2022/07/13 01:09:23;;;;;;;;;;;;;;;15.34;51.21;99852.81;4994376;28;874;-69
2022/07/13 01:11:51;;;;;;;;;;;;;;;15.20;51.64;99857.50;4992902;28;827;-69
2022/07/13 01:14:18;;;;;;;;;;;;;;;15.09;52.25;99848.63;4994053;28;819;-68
2022/07/13 01:16:45;;;;;;;;;;;;;;;15.11;52.48;99860.09;4993755;28;826;-68
2022/07/13 01:19:12;;;;;;;;;;;;;;;15.26;52.09;99850.22;4993910;28;824;-68
2022/07/13 01:21:44;;;;;;;;;;;;;;;15.34;51.68;99847.25;4993821;28;850;-67
2022/07/13 01:24:12;;;;;;;;;;;;;;;15.26;51.99;99853.00;4993733;28;812;-67
2022/07/13 01:26:39;;;;;;;;;;;;;;;15.11;52.61;99851.75;4993713;28;1890;-68
2022/07/13 01:29:06;;;;;;;;;;;;;;;15.09;52.64;99852.19;5008728;28;1157;-68
2022/07/13 01:31:34;;;;;;;;;;;;;;;15.15;52.57;99846.09;4993942;28;967;-68
2022/07/13 01:34:01;;;;;;;;;;;;;;;15.30;52.21;99850.13;4993647;28;894;-68
2022/07/13 01:36:28;;;;;;;;;;;;;;;15.46;51.63;99841.75;4993565;28;881;-68
2022/07/13 01:38:55;;;;;;;;;;;;;;;15.61;51.35;99847.00;4993537;28;870;-68
2022/07/13 01:41:21;;;;;;;;;;;;;;;15.57;51.51;99843.50;4993261;28;1382;-68
2022/07/13 01:43:49;;;;;;;;;;;;;;;15.46;51.76;99846.56;4993408;28;897;-68
2022/07/13 01:46:15;;;;;;;;;;;;;;;15.32;52.18;99837.34;4993253;28;814;-68
2022/07/13 01:48:42;;;;;;;;;;;;;;;15.40;52.06;99834.38;4993197;28;1910;-68
2022/07/13 01:51:09;;;;;;;;;;;;;;;15.34;52.50;99834.13;4993250;28;1010;-68
2022/07/13 01:53:35;;;;;;;;;;;;;;;15.26;52.67;99835.50;4993182;28;887;-68
2022/07/13 01:56:01;;;;;;;;;;;;;;;15.38;52.25;99831.22;4993142;28;878;-68
2022/07/13 01:58:28;;;;;;;;;;;;;;;15.42;52.33;99827.13;4993096;28;819;-68
2022/07/13 02:00:56;;;;;;;;;;;;;;;15.42;52.27;99826.38;4993143;28;791;-68
2022/07/13 02:03:23;;;;;;;;;;;;;;;15.57;51.68;99827.56;5008075;28;1190;-69
2022/07/13 02:05:49;;;;;;;;;;;;;;;15.58;51.69;99834.72;4993057;28;859;-68
2022/07/13 02:08:15;;;;;;;;;;;;;;;15.50;52.07;99827.75;4992834;28;1882;-68
2022/07/13 02:10:42;;;;;;;;;;;;;;;15.34;52.55;99827.75;4993088;28;827;-68
2022/07/13 02:13:11;;;;;;;;;;;;;;;15.15;53.25;99824.63;4992809;28;808;-68
2022/07/13 02:15:38;;;;;;;;;;;;;;;15.11;53.30;99829.50;4993066;28;835;-67
2022/07/13 02:18:05;;;;;;;;;;;;;;;15.26;53.14;99838.28;4992780;28;893;-68
2022/07/13 02:20:33;;;;;;;;;;;;;;;15.38;52.74;99836.81;4992778;28;886;-68
2022/07/13 02:23:00;;;;;;;;;;;;;;;15.41;52.81;99844.31;4992361;28;866;-69
2022/07/13 02:25:26;;;;;;;;;;;;;;;15.45;52.85;99843.00;4992672;28;846;-68
2022/07/13 02:27:53;;;;;;;;;;;;;;;15.44;53.10;99835.06;4992605;28;1922;-68
2022/07/13 02:30:20;;;;;;;;;;;;;;;15.46;53.00;99838.19;4992703;28;917;-68
2022/07/13 02:32:46;;;;;;;;;;;;;;;15.52;52.86;99826.09;4992578;28;875;-68
2022/07/13 02:35:14;;;;;;;;;;;;;;;15.48;53.32;99830.19;4992454;28;823;-68
2022/07/13 02:37:41;;;;;;;;;;;;;;;15.47;53.30;99835.00;4992484;28;819;-68
2022/07/13 02:40:08;;;;;;;;;;;;;;;15.62;52.78;99835.41;4992366;28;815;-69
2022/07/13 02:42:35;;;;;;;;;;;;;;;15.71;52.39;99835.59;4992332;28;1444;-68
2022/07/13 02:45:02;;;;;;;;;;;;;;;15.76;52.55;99825.16;4992303;28;839;-68
2022/07/13 02:47:28;;;;;;;;;;;;;;;15.63;52.89;99825.06;4990951;28;1972;-68
2022/07/13 02:49:55;;;;;;;;;;;;;;;15.49;53.33;99826.19;4992503;28;807;-68
2022/07/13 02:52:22;;;;;;;;;;;;;;;15.53;53.09;99821.31;4992307;28;807;-68
2022/07/13 02:54:48;;;;;;;;;;;;;;;15.55;52.99;99816.09;4992228;28;985;-67
2022/07/13 02:57:16;;;;;;;;;;;;;;;15.49;53.19;99815.84;4992244;28;839;-68
2022/07/13 02:59:42;;;;;;;;;;;;;;;15.42;53.50;99823.56;4992261;28;894;-68
2022/07/13 03:02:09;;;;;;;;;;;;;;;15.26;54.17;99822.34;4992255;28;792;-68
2022/07/13 03:04:35;;;;;;;;;;;;;;;15.18;54.53;99820.19;4992223;28;808;-69
2022/07/13 03:07:02;;;;;;;;;;;;;;;15.09;55.11;99820.78;4992083;28;1945;-68
2022/07/13 03:09:29;;;;;;;;;;;;;;;15.04;55.47;99824.06;4992158;28;855;-68
2022/07/13 03:11:55;;;;;;;;;;;;;;;15.12;55.48;99819.91;4992163;28;843;-68
2022/07/13 03:14:21;;;;;;;;;;;;;;;15.17;55.55;99815.81;4991918;28;901;-68
2022/07/13 03:16:49;;;;;;;;;;;;;;;15.09;55.96;99820.78;4992113;28;859;-68
2022/07/13 03:19:15;;;;;;;;;;;;;;;15.11;55.93;99823.91;4992032;28;811;-68
2022/07/13 03:21:42;;;;;;;;;;;;;;;15.26;55.80;99818.81;4992377;28;811;-67
2022/07/13 03:24:09;;;;;;;;;;;;;;;15.34;55.88;99822.97;4991962;28;871;-68
2022/07/13 03:26:35;;;;;;;;;;;;;;;15.42;56.19;99821.56;4992110;28;857;-68
2022/07/13 03:29:02;;;;;;;;;;;;;;;15.64;55.48;99821.84;4991997;28;819;-68
2022/07/13 03:31:28;;;;;;;;;;;;;;;15.98;54.70;99828.16;4992205;28;924;-68
2022/07/13 03:33:55;;;;;;;;;;;;;;;16.32;53.52;99822.84;4992222;28;818;-68
2022/07/13 03:36:22;;;;;;;;;;;;;;;16.62;52.70;99820.00;4994278;28;838;-69
2022/07/13 03:38:48;;;;;;;;;;;;;;;16.87;52.11;99816.50;4995806;28;818;-68
2022/07/13 03:41:15;;;;;;;;;;;;;;;17.25;51.46;99810.13;4995489;28;1409;-68
2022/07/13 03:43:41;;;;;;;;;;;;;;;17.66;50.09;99805.59;4995761;28;878;-69
2022/07/13 03:46:08;;;;;;;;;;;;;;;18.00;49.69;99812.44;4995835;28;917;-68
2022/07/13 03:48:35;;;;;;;;;;;;;;;18.27;49.47;99815.47;4995502;28;1987;-68
2022/07/13 03:51:02;;;;;;;;;;;;;;;18.41;49.38;99819.75;4995517;28;873;-68
2022/07/13 03:53:29;;;;;;;;;;;;;;;18.57;49.32;99832.75;4995477;28;909;-68
2022/07/13 03:55:55;;;;;;;;;;;;;;;18.81;48.66;99835.88;4995429;28;882;-67
2022/07/13 03:58:21;;;;;;;;;;;;;;;19.01;48.22;99834.72;4995354;28;819;-68
2022/07/13 04:00:47;;;;;;;;;;;;;;;19.09;48.01;99836.78;4995434;28;858;-68
2022/07/13 04:03:14;;;;;;;;;;;;;;;19.01;48.13;99835.53;4995328;28;799;-67
2022/07/13 04:05:40;;;;;;;;;;;;;;;18.81;48.45;99833.09;4995310;28;886;-67
2022/07/13 04:08:07;;;;;;;;;;;;;;;18.76;48.69;99826.03;4995154;28;1956;-67
2022/07/13 04:10:34;;;;;;;;;;;;;;;18.80;48.98;99823.13;4995386;28;811;-67
2022/07/13 04:13:00;;;;;;;;;;;;;;;18.84;48.95;99826.59;4995065;28;823;-68
2022/07/13 04:15:27;;;;;;;;;;;;;;;18.92;48.92;99824.28;4995048;28;787;-68
2022/07/13 04:17:53;;;;;;;;;;;;;;;19.00;48.41;99833.97;4995065;28;827;-68
2022/07/13 04:20:20;;;;;;;;;;;;;;;19.12;48.10;99832.31;4994975;28;827;-68
2022/07/13 04:22:46;;;;;;;;;;;;;;;19.20;48.22;99838.38;4995049;28;815;-67
2022/07/13 04:25:13;;;;;;;;;;;;;;;19.25;48.52;99832.19;4995017;28;867;-67
2022/07/13 04:27:40;;;;;;;;;;;;;;;19.12;48.62;99813.47;4995028;28;1955;-67
2022/07/13 04:30:07;;;;;;;;;;;;;;;19.46;48.41;99841.75;4995009;28;917;-67
2022/07/13 04:32:33;;;;;;;;;;;;;;;19.55;48.28;99844.59;4995143;28;815;-68
2022/07/13 04:35:00;;;;;;;;;;;;;;;19.60;48.29;99841.16;5010030;28;1192;-68
2022/07/13 04:37:27;;;;;;;;;;;;;;;19.58;48.25;99849.25;4995229;28;890;-67
2022/07/13 04:39:53;;;;;;;;;;;;;;;19.58;48.42;99844.41;4994794;28;811;-67
2022/07/13 04:42:20;;;;;;;;;;;;;;;19.61;48.51;99845.53;4994596;28;1398;-67
2022/07/13 04:44:47;;;;;;;;;;;;;;;19.60;48.54;99838.34;4994482;28;851;-67
2022/07/13 04:47:14;;;;;;;;;;;;;;;19.58;48.63;99840.84;4994881;28;1911;-67
2022/07/13 04:49:40;;;;;;;;;;;;;;;19.57;48.60;99840.06;4994460;28;823;-67
2022/07/13 04:52:07;;;;;;;;;;;;;;;19.61;48.34;99844.72;4994718;28;870;-68
2022/07/13 04:54:34;;;;;;;;;;;;;;;19.78;47.89;99840.47;4994344;28;823;-68
2022/07/13 04:57:00;;;;;;;;;;;;;;;20.02;47.35;99846.25;4994329;28;827;-68
2022/07/13 04:59:26;;;;;;;;;;;;;;;20.21;46.70;99840.66;4994431;28;874;-68
2022/07/13 05:01:53;;;;;;;;;;;;;;;20.54;46.14;99847.13;4994227;28;1025;-68
2022/07/13 05:04:20;;;;;;;;;;;;;;;20.70;45.18;99842.47;4994198;28;815;-67
2022/07/13 05:06:46;;;;;;;;;;;;;;;20.62;44.72;99832.81;4994104;28;1894;-68
2022/07/13 05:09:13;;;;;;;;;;;;;;;20.65;44.54;99851.53;4994112;28;968;-68
2022/07/13 05:11:40;;;;;;;;;;;;;;;20.84;44.61;99847.41;4993990;28;929;-68
2022/07/13 05:14:07;;;;;;;;;;;;;;;21.11;43.91;99854.22;4993974;28;837;-68
2022/07/13 05:16:33;;;;;;;;;;;;;;;21.55;42.88;99850.88;4994128;28;855;-69
2022/07/13 05:19:00;;;;;;;;;;;;;;;21.58;43.03;99850.72;4994240;28;889;-67
2022/07/13 05:21:28;;;;;;;;;;;;;;;21.49;43.19;99850.78;4993806;28;811;-68
2022/07/13 05:23:54;;;;;;;;;;;;;;;21.38;43.38;99845.66;4993850;28;799;-67
2022/07/13 05:26:21;;;;;;;;;;;;;;;21.91;43.21;99846.28;4993886;28;875;-68
2022/07/13 05:28:48;;;;;;;;;;;;;;;22.60;42.01;99839.47;4993697;28;1907;-68
2022/07/13 05:31:25;;;;;;;;;;;;;;;23.19;40.46;99844.31;4994078;28;932;-72
2022/07/13 05:33:52;;;;;;;;;;;;;;;23.12;40.85;99841.13;4993654;28;867;-67
2022/07/13 05:36:19;;;;;;;;;;;;;;;23.20;40.66;99834.59;4993685;28;862;-67
2022/07/13 05:38:45;;;;;;;;;;;;;;;23.58;39.64;99823.59;4993580;28;866;-68
2022/07/13 05:41:12;;;;;;;;;;;;;;;24.23;38.38;99821.31;4993374;28;1373;-69
2022/07/13 05:43:43;;;;;;;;;;;;;;;24.81;37.19;99826.25;4993317;28;929;-69
2022/07/13 05:46:28;;;;;;;;;;;;;;;25.16;36.01;99825.28;4993671;28;811;-71
2022/07/13 05:52:15;;;;;;;;;;;;;;;25.09;36.14;99829.31;4993380;28;634;-68
2022/07/13 05:54:42;;;;;;;;;;;;;;;24.08;37.59;99831.16;4993244;28;893;-71
2022/07/13 05:57:08;;;;;;;;;;;;;;;23.54;39.19;99837.13;4993212;28;832;-68
2022/07/13 05:59:34;;;;;;;;;;;;;;;23.18;39.89;99830.72;4992678;28;819;-68
2022/07/13 06:02:01;;;;;;;;;;;;;;;22.86;40.47;99830.44;4993061;28;878;-67
2022/07/13 06:07:30;;;;;;;;;;;;;;;22.68;41.81;99825.00;4993003;28;1974;-67
2022/07/13 06:10:00;;;;;;;;;;;;;;;22.63;41.29;99821.59;4992878;28;834;-66
2022/07/13 06:12:27;;;;;;;;;;;;;;;22.64;41.36;99825.22;4992858;28;803;-67
2022/07/13 06:14:54;;;;;;;;;;;;;;;22.90;40.91;99824.59;4992835;28;870;-69
2022/07/13 06:17:22;;;;;;;;;;;;;;;22.93;41.42;99824.41;4992865;28;815;-67
2022/07/13 06:19:49;;;;;;;;;;;;;;;23.03;40.82;99827.91;4992747;28;849;-69
2022/07/13 06:22:16;;;;;;;;;;;;;;;23.52;40.35;99831.22;4991416;28;1427;-67
2022/07/13 06:24:43;;;;;;;;;;;;;;;23.54;39.47;99828.66;4992703;28;795;-75
2022/07/13 06:30:12;;;;;;;;;;;;;;;22.47;41.65;99833.34;4992662;28;913;-68
2022/07/13 06:32:38;;;;;;;;;;;;;;;22.40;42.48;99844.97;4992556;28;1212;-67
2022/07/13 06:38:08;;;;;;;;;;;;;;;22.80;41.98;99840.84;4992585;28;630;-68
2022/07/13 06:40:34;;;;;;;;;;;;;;;22.85;41.87;99845.78;4992371;28;1247;-67
2022/07/13 06:43:01;;;;;;;;;;;;;;;22.89;42.11;99849.19;4992428;28;808;-68
2022/07/13 06:45:28;;;;;;;;;;;;;;;23.35;41.58;99848.66;4992348;28;847;-67
2022/07/13 06:47:55;;;;;;;;;;;;;;;23.05;40.13;99845.13;4992341;28;1918;-67
2022/07/13 06:50:22;;;;;;;;;;;;;;;22.47;41.58;99855.88;5007365;28;1396;-67
2022/07/13 06:52:48;;;;;;;;;;;;;;;22.83;41.52;99845.50;4992324;28;886;-67
2022/07/13 06:55:17;;;;;;;;;;;;;;;22.88;41.21;99860.94;4992533;28;791;-67
2022/07/13 06:57:43;;;;;;;;;;;;;;;22.98;41.13;99843.44;4992234;28;882;-68
2022/07/13 07:00:11;;;;;;;;;;;;;;;24.81;38.94;99858.13;4992207;28;866;-67
2022/07/13 07:02:40;;;;;;;;;;;;;;;26.38;36.09;99836.94;4992291;28;819;-70
2022/07/13 07:05:10;;;;;;;;;;;;;;;27.41;33.90;99836.47;4992159;28;806;-72
2022/07/13 07:22:50;;;;;;;;;;;;;;;24.98;34.96;99837.72;4996121;28;602;-70
2022/07/13 07:25:55;;;;;;;;;;;;;;;24.48;36.70;99841.63;4996420;28;846;-68
2022/07/13 07:28:21;;;;;;;;;;;;;;;23.99;37.24;99838.50;4995980;28;1973;-67
2022/07/13 07:30:48;;;;;;;;;;;;;;;24.01;37.16;99841.63;4996067;28;1017;-70
2022/07/13 07:33:20;;;;;;;;;;;;;;;24.09;35.46;99836.31;4995860;28;925;-75
2022/07/13 07:35:46;;;;;;;;;;;;;;;24.95;35.88;99845.16;4995910;28;844;-69
2022/07/13 07:51:11;;;;;;;;;;;;;;;23.35;38.21;99854.28;4993094;28;1182;-72
2022/07/13 07:53:38;;;;;;;;;;;;;;;24.36;36.91;99848.41;4995448;28;890;-69
2022/07/13 07:56:14;;;;;;;;;;;;;;;25.56;34.85;99851.75;4994088;28;1224;-71
2022/07/13 07:58:44;;;;;;;;;;;;;;;26.52;33.16;99849.31;4995521;28;812;-68
2022/07/13 08:01:11;;;;;;;;;;;;;;;26.22;33.20;99849.75;5010284;28;1200;-68
2022/07/13 08:03:36;;;;;;;;;;;;;;;24.60;35.50;99856.63;4995478;28;788;-72
2022/07/13 08:06:09;;;;;;;;;;;;;;;23.35;38.30;99853.53;4995493;28;839;-72
2022/07/13 08:08:49;;;;;;;;;;;;;;;22.83;39.28;99851.91;4995226;28;1981;-69
2022/07/13 08:11:19;;;;;;;;;;;;;;;23.67;38.77;99850.91;4995114;28;898;-71
2022/07/13 08:13:46;;;;;;;;;;;;;;;24.60;36.53;99848.16;4995312;28;852;-71
2022/07/13 08:16:17;;;;;;;;;;;;;;;25.72;35.43;99842.59;4993931;28;1158;-72
2022/07/13 08:21:52;;;;;;;;;;;;;;;28.07;31.20;99848.91;4995114;28;598;-69
2022/07/13 08:39:14;;;;;;;;;;;;;;;29.23;28.34;99854.88;4994565;28;689;-69
2022/07/13 08:41:40;;;;;;;;;;;;;;;29.39;28.53;99848.25;4994807;28;792;-68
2022/07/13 08:44:07;;;;;;;;;;;;;;;29.46;28.41;99847.66;4994539;28;850;-69
2022/07/13 08:49:35;;;;;;;;;;;;;;;29.43;28.45;99862.19;4994370;28;1227;-72
2022/07/13 08:52:02;;;;;;;;;;;;;;;29.77;27.63;99859.78;4994413;28;918;-70
2022/07/13 09:09:53;;;;;;;;;;;;;;;28.94;28.94;99856.41;4994257;28;1015;-68
2022/07/13 09:12:21;;;;;;;;;;;;;;;29.21;30.45;99851.78;4994165;28;858;-69
2022/07/13 09:14:53;;;;;;;;;;;;;;;29.74;30.02;99857.22;4993985;28;875;-67
2022/07/13 09:17:34;;;;;;;;;;;;;;;29.76;28.76;99858.22;4994229;28;866;-69
2022/07/13 09:20:04;;;;;;;;;;;;;;;29.71;28.94;99857.00;4993885;28;815;-70
2022/07/13 09:22:58;;;;;;;;;;;;;;;29.15;29.47;99853.91;4994260;28;859;-72
2022/07/13 09:25:34;;;;;;;;;;;;;;;28.72;29.99;99846.75;4972066;28;1167;-69
2022/07/13 09:28:05;;;;;;;;;;;;;;;28.59;30.55;99850.22;4993536;28;1878;-69
2022/07/13 09:30:41;;;;;;;;;;;;;;;28.56;29.99;99862.63;4993872;28;960;-73
2022/07/13 09:36:11;;;;;;;;;;;;;;;28.23;30.28;99864.34;4993672;28;610;-70
2022/07/13 09:50:52;;;;;;;;;;;;;;;28.11;31.13;99860.00;4991259;28;1261;-70
2022/07/13 09:53:24;;;;;;;;;;;;;;;28.04;30.62;99857.72;4993279;28;807;-70
2022/07/13 09:55:59;;;;;;;;;;;;;;;27.75;30.25;99868.38;4993278;28;835;-71
2022/07/13 10:01:41;;;;;;;;;;;;;;;27.23;30.54;99849.16;4993096;28;1221;-72
2022/07/13 10:33:30;;;;;;;;;;;;;;;27.99;30.33;99835.78;5012053;23;1681;-64
2022/07/13 10:36:00;;;;;;;;;;;;;;;28.15;29.63;99842.69;4992559;28;1310;-64
2022/07/13 10:38:28;;;;;;;;;;;;;;;28.14;29.71;99836.22;4992557;28;1111;-63
2022/07/13 10:41:33;;;;;;;;;;;;;;;28.26;29.98;99836.94;4975106;28;1202;-64
2022/07/13 10:44:23;;;;;;;;;;;;;;;28.45;29.55;99845.63;4935577;28;1312;-64
2022/07/13 10:46:55;;;;;;;;;;;;;;;28.82;29.88;99835.81;4935791;29;1152;-63
2022/07/13 10:49:52;;;;;;;;;;;;;;;29.42;28.88;99830.09;4951877;29;1056;-63
2022/07/13 10:52:26;;;;;;;;;;;;;;;29.51;27.89;99823.31;4950908;29;1097;-63
2022/07/13 10:55:11;;;;;;;;;;;;;;;29.41;27.84;99824.97;4951656;29;1055;-64
2022/07/13 10:57:48;;;;;;;;;;;;;;;29.19;28.20;99832.41;4935583;29;871;-63
2022/07/13 11:03:50;;;;;;;;;;;;;;;28.73;28.39;99824.78;4951560;29;645;-64
2022/07/13 11:06:28;;;;;;;;;;;;;;;29.87;27.46;99821.09;4951116;29;1131;-63
2022/07/13 11:09:13;;;;;;;;;;;;;;;30.47;26.85;99825.72;4951418;29;1956;-63
2022/07/13 11:14:47;;;;;;;;;;;;;;;30.61;25.71;99823.69;4971192;28;1089;-65
2022/07/13 11:17:19;;;;;;;;;;;;;;;30.66;25.34;99822.84;4974839;28;1221;-64
2022/07/13 11:29:15;;;;;;;;;;;;;;;31.44;23.54;99813.47;4992275;28;1983;-64
2022/07/13 11:32:02;;;;;;;;;;;;;;;31.80;24.58;99810.94;4936359;29;1252;-63
2022/07/13 11:34:28;;;;;;;;;;;;;;;32.40;23.80;99808.63;4935134;29;1214;-64
2022/07/13 11:36:59;;;;;;;;;;;;;;;32.96;23.45;99812.97;4951204;29;938;-64
2022/07/13 11:39:26;;;;;;;;;;;;;;;32.48;22.46;99813.09;4951161;29;827;-63
2022/07/13 11:41:54;;;;;;;;;;;;;;;32.65;23.56;99806.22;4951167;29;874;-63
2022/07/13 11:44:42;;;;;;;;;;;;;;;33.28;22.45;99814.75;4951107;29;899;-64
2022/07/13 11:47:12;;;;;;;;;;;;;;;32.67;22.08;99815.03;4951102;29;1906;-63
2022/07/13 11:49:46;;;;;;;;;;;;;;;32.62;22.21;99810.94;4951269;29;1039;-63
2022/07/13 11:55:18;;;;;;;;;;;;;;;32.73;22.92;99812.75;4950939;28;1042;-63
2022/07/13 11:57:47;;;;;;;;;;;;;;;33.10;23.18;99820.19;4953837;29;874;-64
2022/07/13 12:00:22;;;;;;;;;;;;;;;33.05;22.68;99815.34;4954466;29;804;-63
2022/07/13 12:02:51;;;;;;;;;;;;;;;32.64;23.31;99810.41;4954637;29;964;-64
2022/07/13 12:08:23;;;;;;;;;;;;;;;33.08;23.08;99807.75;4963415;28;1918;-64
2022/07/13 12:10:59;;;;;;;;;;;;;;;33.68;21.92;99805.88;4995295;28;802;-66
2022/07/13 12:13:31;;;;;;;;;;;;;;;34.24;21.25;99801.34;4995489;28;807;-64
2022/07/13 12:15:58;;;;;;;;;;;;;;;35.02;20.57;99802.97;4993914;28;922;-64
2022/07/13 12:18:25;;;;;;;;;;;;;;;34.86;20.74;99807.19;4995143;28;810;-64
2022/07/13 12:20:52;;;;;;;;;;;;;;;33.32;21.44;99800.84;4995018;28;837;-64
2022/07/13 12:23:18;;;;;;;;;;;;;;;33.73;21.74;99794.22;4993757;28;1313;-64
2022/07/13 12:26:02;;;;;;;;;;;;;;;34.24;21.24;99795.59;4994996;28;849;-64
2022/07/13 12:28:28;;;;;;;;;;;;;;;33.75;21.30;99794.44;4994869;28;1953;-63
2022/07/13 12:34:01;;;;;;;;;;;;;;;34.37;20.57;99794.66;4991342;28;1269;-64
2022/07/13 12:39:45;;;;;;;;;;;;;;;35.18;19.85;99798.75;4990890;28;1166;-64
2022/07/13 12:42:20;;;;;;;;;;;;;;;35.28;19.90;99789.59;4994725;28;882;-64
2022/07/13 12:44:47;;;;;;;;;;;;;;;35.76;19.70;99775.28;4994658;28;839;-63
2022/07/13 12:47:14;;;;;;;;;;;;;;;36.82;19.35;99769.47;4994724;28;1911;-64
2022/07/13 12:49:45;;;;;;;;;;;;;;;37.14;18.31;99771.50;4994528;28;873;-65
2022/07/13 12:52:12;;;;;;;;;;;;;;;36.75;19.31;99781.84;4994603;28;912;-65
2022/07/13 12:54:52;;;;;;;;;;;;;;;35.70;19.87;99777.59;4994437;28;831;-65
2022/07/13 12:57:20;;;;;;;;;;;;;;;32.68;22.14;99777.25;4994379;28;814;-64
2022/07/13 13:00:00;;;;;;;;;;;;;;;30.61;23.90;99789.47;4994575;28;747;-63
2022/07/13 13:02:28;;;;;;;;;;;;;;;30.51;24.60;99785.47;4994306;28;878;-63
2022/07/13 13:04:54;;;;;;;;;;;;;;;31.79;24.06;99780.81;4994456;28;786;-63
2022/07/13 13:07:21;;;;;;;;;;;;;;;33.68;22.48;99774.34;4994032;28;1894;-63
2022/07/13 13:09:47;;;;;;;;;;;;;;;35.18;20.59;99778.66;4994442;28;798;-63
2022/07/13 13:12:14;;;;;;;;;;;;;;;33.97;21.79;99763.59;4976728;28;1164;-63
2022/07/13 13:14:40;;;;;;;;;;;;;;;32.02;23.96;99780.34;4994034;28;870;-63
2022/07/13 13:17:08;;;;;;;;;;;;;;;30.28;24.66;99765.88;4994096;28;901;-65
2022/07/13 13:19:34;;;;;;;;;;;;;;;30.50;24.76;99775.38;4994015;28;854;-63
2022/07/13 13:22:03;;;;;;;;;;;;;;;31.44;24.13;99768.56;4976411;28;1327;-63
2022/07/13 13:24:29;;;;;;;;;;;;;;;33.44;22.73;99764.84;4993947;28;830;-64
2022/07/13 13:26:56;;;;;;;;;;;;;;;34.93;21.17;99755.53;4976406;28;1204;-63
2022/07/13 13:32:08;;;;;;;;;;;;;;;36.30;18.92;99755.66;4994329;28;1211;-64
2022/07/13 13:34:34;;;;;;;;;;;;;;;36.37;18.80;99746.19;4993776;28;869;-64
2022/07/13 13:37:09;;;;;;;;;;;;;;;36.22;18.76;99748.44;4993655;28;803;-64
2022/07/13 13:39:35;;;;;;;;;;;;;;;36.47;18.79;99746.34;4993638;28;795;-64
2022/07/13 13:42:02;;;;;;;;;;;;;;;36.11;18.98;99744.63;4993582;28;830;-62
2022/07/13 13:44:28;;;;;;;;;;;;;;;35.45;18.94;99743.00;4993621;28;838;-62
2022/07/13 13:46:55;;;;;;;;;;;;;;;34.72;19.82;99752.84;4993535;28;810;-62
2022/07/13 13:49:23;;;;;;;;;;;;;;;34.07;20.06;99758.81;4993378;28;1902;-63
2022/07/13 13:51:50;;;;;;;;;;;;;;;34.31;19.53;99754.72;4993433;28;779;-63
2022/07/13 13:54:18;;;;;;;;;;;;;;;34.48;19.49;99756.25;4993247;28;862;-62
2022/07/13 13:56:45;;;;;;;;;;;;;;;34.42;19.31;99749.91;4993321;28;862;-62
2022/07/13 13:59:11;;;;;;;;;;;;;;;34.37;19.61;99754.50;4993063;28;887;-61
2022/07/13 14:01:39;;;;;;;;;;;;;;;34.75;19.40;99751.69;4993236;28;811;-62
2022/07/13 14:04:05;;;;;;;;;;;;;;;34.14;19.44;99752.38;4993121;28;798;-61
2022/07/13 14:18:43;;;;;;;;;;;;;;;32.13;22.11;99745.78;4992898;28;656;-61
2022/07/13 14:21:09;;;;;;;;;;;;;;;31.40;22.96;99738.78;4992866;28;846;-61
2022/07/13 14:23:37;;;;;;;;;;;;;;;31.67;23.07;99743.16;4992850;28;790;-61
2022/07/13 14:26:04;;;;;;;;;;;;;;;31.82;23.70;99744.66;4993023;28;847;-61
2022/07/13 14:31:40;;;;;;;;;;;;;;;30.26;24.74;99742.81;4978448;28;1205;-61
2022/07/13 14:34:06;;;;;;;;;;;;;;;30.06;24.69;99746.22;4992480;28;1446;-61
2022/07/13 14:36:35;;;;;;;;;;;;;;;30.03;25.22;99745.22;4975229;28;1336;-61
2022/07/13 14:39:01;;;;;;;;;;;;;;;29.87;25.23;99741.31;4975131;28;1252;-61
2022/07/13 14:44:30;;;;;;;;;;;;;;;29.35;25.98;99744.53;4992424;28;1370;-63
2022/07/13 14:46:57;;;;;;;;;;;;;;;29.34;26.16;99743.00;4992707;28;802;-63
2022/07/13 14:49:24;;;;;;;;;;;;;;;29.68;26.35;99740.50;4992353;28;1907;-63
2022/07/13 14:51:50;;;;;;;;;;;;;;;29.88;25.38;99728.59;4992441;28;850;-63
2022/07/13 14:54:17;;;;;;;;;;;;;;;29.86;25.52;99742.63;4992416;28;854;-63
2022/07/13 15:06:28;;;;;;;;;;;;;;;30.58;23.46;99730.66;4992629;28;667;-63
2022/07/13 15:09:16;;;;;;;;;;;;;;;30.31;24.11;99721.25;4932237;29;1957;-63
2022/07/13 15:27:03;;;;;;;;;;;;;;;30.03;24.17;99745.22;4931949;29;1148;-63
2022/07/13 15:29:31;;;;;;;;;;;;;;;29.56;24.89;99739.88;4916086;29;2028;-63
2022/07/13 15:31:57;;;;;;;;;;;;;;;29.12;24.86;99747.63;4933711;29;1084;-64
2022/07/13 15:34:24;;;;;;;;;;;;;;;28.89;24.98;99738.53;4954064;28;1448;-63
2022/07/13 15:37:00;;;;;;;;;;;;;;;28.75;25.48;99737.63;4955014;29;971;-63
2022/07/13 15:39:27;;;;;;;;;;;;;;;28.63;26.31;99739.78;4965692;28;1077;-63
2022/07/13 15:41:54;;;;;;;;;;;;;;;28.38;25.88;99736.13;4995771;28;882;-63
2022/07/13 15:44:21;;;;;;;;;;;;;;;28.39;26.90;99739.72;4995988;28;814;-63
2022/07/13 15:46:48;;;;;;;;;;;;;;;28.45;26.22;99738.38;4995732;28;799;-63
2022/07/13 15:49:15;;;;;;;;;;;;;;;28.47;26.02;99735.78;4995698;28;1965;-63
2022/07/13 15:51:41;;;;;;;;;;;;;;;28.42;26.33;99735.81;4995641;28;835;-63
2022/07/13 15:54:08;;;;;;;;;;;;;;;28.51;26.24;99735.53;4995561;28;889;-63
2022/07/13 15:56:36;;;;;;;;;;;;;;;28.89;25.44;99738.53;4995505;28;878;-63
2022/07/13 15:59:02;;;;;;;;;;;;;;;29.25;25.18;99733.53;4995485;28;877;-64
2022/07/13 16:01:29;;;;;;;;;;;;;;;29.49;24.62;99738.41;4995545;28;854;-63
2022/07/13 16:03:56;;;;;;;;;;;;;;;29.83;24.82;99745.75;4995412;28;846;-63
2022/07/13 16:06:26;;;;;;;;;;;;;;;29.91;24.36;99744.63;4995414;28;935;-64
2022/07/13 16:08:53;;;;;;;;;;;;;;;29.47;24.74;99749.56;4995296;28;1899;-64
2022/07/13 16:11:20;;;;;;;;;;;;;;;28.91;25.75;99750.13;4995478;28;913;-64
2022/07/13 16:13:48;;;;;;;;;;;;;;;28.36;26.14;99749.28;4995334;28;810;-64
2022/07/13 16:16:15;;;;;;;;;;;;;;;27.96;26.61;99751.63;4995195;28;834;-63
2022/07/13 16:18:42;;;;;;;;;;;;;;;27.65;26.46;99754.34;4995215;28;798;-64
2022/07/13 16:21:09;;;;;;;;;;;;;;;27.37;27.47;99757.28;4995068;28;875;-63
2022/07/13 16:23:35;;;;;;;;;;;;;;;27.14;27.66;99758.59;4995136;28;861;-64
2022/07/13 16:26:01;;;;;;;;;;;;;;;26.87;28.63;99755.31;4995110;28;858;-64
2022/07/13 16:28:28;;;;;;;;;;;;;;;26.64;28.83;99760.22;4994989;28;1972;-63
2022/07/13 16:30:54;;;;;;;;;;;;;;;26.46;29.37;99767.16;4995038;28;1003;-63